Time;durP1;ratioP1;P1;durP2;ratioP2;P2;SDS_P1;SDS_P2;PMS_P1;PMS_P2;Temp;Humidity;BMP_temperature;BMP_pressure;BME280_temperature;BME280_humidity;BME280_pressure;Samples;Min_cycle;Max_cycle;Signal;HPM_P1;HPM_P2
2020/12/25 00:01:38;;;;;;;2.08;1.42;;;;;;;4.47;85.91;100161.85;1720621;83;21206;-76
2020/12/25 00:04:04;;;;;;;3.27;1.30;;;;;;;4.46;85.88;100166.11;1695319;83;21218;-76
2020/12/25 00:06:35;;;;;;;2.72;1.57;;;;;;;4.47;85.92;100167.83;1715438;82;21182;-76
2020/12/25 00:09:05;;;;;;;3.27;1.42;;;;;;;4.47;85.90;100166.97;1718992;83;21247;-76
2020/12/25 00:11:35;;;;;;;3.65;1.60;;;;;;;4.48;85.90;100167.40;1719683;83;21636;-76
2020/12/25 00:14:01;;;;;;;2.52;1.27;;;;;;;4.49;85.90;100175.08;1711969;82;21377;-76
2020/12/25 00:16:28;;;;;;;2.25;1.47;;;;;;;4.48;85.88;100177.22;1735385;82;27018;-76
2020/12/25 00:18:56;;;;;;;4.12;1.60;;;;;;;4.49;85.92;100181.91;1720688;82;21186;-76
2020/12/25 00:21:23;;;;;;;2.90;1.82;;;;;;;4.49;85.92;100179.34;1707594;82;21197;-76
2020/12/25 00:23:49;;;;;;;2.15;1.37;;;;;;;4.49;85.90;100183.19;1712878;83;21610;-76
2020/12/25 00:26:28;;;;;;;4.75;1.32;;;;;;;4.49;85.92;100185.75;1703043;83;21201;-76
2020/12/25 00:28:57;;;;;;;2.15;1.50;;;;;;;4.50;85.95;100188.31;1699309;83;22211;-76
2020/12/25 00:31:30;;;;;;;1.82;1.50;;;;;;;4.53;86.02;100193.86;1711855;83;21246;-76
2020/12/25 00:34:03;;;;;;;4.42;1.65;;;;;;;4.54;86.03;100187.89;1718894;82;21735;-76
2020/12/25 00:36:33;;;;;;;4.30;1.98;;;;;;;4.56;86.00;100190.03;1712703;82;21203;-76
2020/12/25 00:39:02;;;;;;;2.75;1.77;;;;;;;4.57;85.96;100196.86;1710776;82;21218;-76
2020/12/25 00:41:29;;;;;;;2.77;1.37;;;;;;;4.55;85.95;100203.25;1718777;82;21639;-76
2020/12/25 00:43:55;;;;;;;2.70;1.70;;;;;;;4.56;85.98;100202.83;1716865;82;21211;-76
2020/12/25 00:46:22;;;;;;;2.67;1.62;;;;;;;4.54;85.95;100207.09;1713491;82;21628;-76
2020/12/25 00:48:48;;;;;;;;;;;;;;;4.55;86.04;100213.50;1722500;83;21474;-76
2020/12/25 00:51:19;;;;;;;;;;;;;;;4.55;86.03;100222.88;1708697;83;20313;-76
2020/12/25 00:53:46;;;;;;;2.45;1.65;;;;;;;4.52;86.01;100228.85;1699930;83;21356;-76
2020/12/25 00:56:14;;;;;;;2.80;1.40;;;;;;;4.53;86.06;100232.27;1718571;83;21189;-76
2020/12/25 00:58:41;;;;;;;3.58;1.85;;;;;;;4.53;86.12;100244.64;1686792;84;21225;-76
2020/12/25 01:01:10;;;;;;;4.53;1.80;;;;;;;4.53;86.09;100238.23;1704037;83;21181;-76
2020/12/25 01:03:39;;;;;;;4.60;1.80;;;;;;;4.54;86.11;100239.95;1707085;83;21178;-76
2020/12/25 01:06:15;;;;;;;4.10;1.77;;;;;;;4.53;86.05;100248.48;1699462;83;21400;-76
2020/12/25 01:08:43;;;;;;;1.95;1.27;;;;;;;4.53;86.05;100258.72;1701988;82;21531;-76
2020/12/25 01:11:09;;;;;;;2.35;1.60;;;;;;;4.52;86.03;100249.76;1705409;83;21197;-76
2020/12/25 01:13:37;;;;;;;4.10;1.42;;;;;;;4.52;86.02;100254.45;1698212;83;21689;-76
2020/12/25 01:16:15;;;;;;;2.27;1.40;;;;;;;4.52;86.04;100257.44;1705285;83;21552;-76
2020/12/25 01:18:39;;;;;;;4.90;1.67;;;;;;;4.52;86.05;100263.84;1714640;83;21193;-76
2020/12/25 01:21:05;;;;;;;1.32;1.15;;;;;;;4.52;86.02;100269.81;1694002;83;21566;-76
2020/12/25 01:23:32;;;;;;;5.42;1.40;;;;;;;4.51;85.99;100268.11;1703959;84;21129;-76
2020/12/25 01:25:58;;;;;;;5.15;1.15;;;;;;;4.50;85.99;100269.38;1708874;83;21105;-76
2020/12/25 01:28:24;;;;;;;3.85;1.47;;;;;;;4.48;85.97;100277.05;1702600;83;21647;-76
2020/12/25 01:30:50;;;;;;;2.35;1.20;;;;;;;4.48;85.99;100282.60;1719073;83;21228;-76
2020/12/25 01:33:17;;;;;;;2.75;1.20;;;;;;;4.47;85.95;100286.01;1721563;83;21114;-76
2020/12/25 01:35:43;;;;;;;2.20;1.12;;;;;;;4.45;85.97;100285.16;1724273;82;21238;-76
2020/12/25 01:38:09;;;;;;;2.17;1.62;;;;;;;4.45;85.99;100287.28;1716812;82;22275;-76
2020/12/25 01:40:36;;;;;;;3.20;1.07;;;;;;;4.44;85.99;100288.56;1692918;83;21221;-76
2020/12/25 01:43:02;;;;;;;3.27;1.12;;;;;;;4.43;85.92;100294.53;1702571;82;21263;-76
2020/12/25 01:45:28;;;;;;;1.67;0.70;;;;;;;4.40;85.93;100290.67;1705692;82;22312;-76
2020/12/25 01:47:56;;;;;;;2.65;1.07;;;;;;;4.39;85.91;100298.78;1697559;83;21213;-76
2020/12/25 01:50:28;;;;;;;1.77;1.15;;;;;;;4.38;85.95;100304.75;1705450;82;21126;-76
2020/12/25 01:52:56;;;;;;;1.55;1.02;;;;;;;4.37;85.93;100308.58;1703133;82;21608;-76
2020/12/25 01:55:29;;;;;;;3.62;1.12;;;;;;;4.35;85.96;100310.28;1702432;83;21718;-76
2020/12/25 01:57:58;;;;;;;2.52;1.10;;;;;;;4.35;85.94;100315.40;1692478;83;21067;-76
2020/12/25 02:00:25;;;;;;;2.00;0.95;;;;;;;4.33;85.95;100323.92;1709940;83;21176;-76
2020/12/25 02:02:52;;;;;;;3.72;1.00;;;;;;;4.33;85.96;100320.52;1699466;83;21670;-76
2020/12/25 02:05:18;;;;;;;1.52;0.80;;;;;;;4.29;85.91;100322.20;1709076;83;21197;-76
2020/12/25 02:07:45;;;;;;;1.17;0.80;;;;;;;4.29;85.92;100323.91;1708167;83;21202;-76
2020/12/25 02:10:13;;;;;;;3.27;1.47;;;;;;;4.26;85.90;100323.46;1679757;83;21205;-76
2020/12/25 02:12:40;;;;;;;2.45;1.10;;;;;;;4.25;85.91;100330.70;1701245;83;21197;-76
2020/12/25 02:15:07;;;;;;;2.05;1.10;;;;;;;4.22;85.87;100329.84;1711767;82;21170;-76
2020/12/25 02:17:34;;;;;;;3.90;1.55;;;;;;;4.21;85.90;100331.97;1707506;83;21217;-76
2020/12/25 02:20:03;;;;;;;2.65;1.07;;;;;;;4.21;85.94;100335.37;1716703;83;21604;-76
2020/12/25 02:22:30;;;;;;;4.30;1.00;;;;;;;4.20;85.90;100332.81;1706426;83;21217;-76
2020/12/25 02:24:56;;;;;;;2.83;0.93;;;;;;;4.17;85.90;100340.05;1688897;83;21162;-76
2020/12/25 02:27:23;;;;;;;4.72;1.22;;;;;;;4.15;85.87;100339.64;1691197;83;21193;-76
2020/12/25 02:29:49;;;;;;;2.65;1.50;;;;;;;4.15;85.95;100346.03;1695206;83;21240;-76
2020/12/25 02:32:15;;;;;;;3.35;1.25;;;;;;;4.14;85.90;100350.30;1717578;83;21239;-76
2020/12/25 02:34:41;;;;;;;2.12;1.35;;;;;;;4.11;85.86;100351.98;1694612;83;21226;-76
2020/12/25 02:37:08;;;;;;;2.17;1.40;;;;;;;4.08;85.86;100355.37;1709317;82;21225;-76
2020/12/25 02:39:34;;;;;;;3.47;1.70;;;;;;;4.05;85.90;100354.08;1713641;82;21659;-76
2020/12/25 02:42:00;;;;;;;2.30;1.20;;;;;;;4.01;85.88;100360.02;1697123;83;21261;-76
2020/12/25 02:44:26;;;;;;;3.65;1.37;;;;;;;3.99;85.92;100366.41;1674620;84;22026;-76
2020/12/25 02:46:53;;;;;;;2.35;1.67;;;;;;;3.97;85.95;100364.27;1702758;83;21226;-76
2020/12/25 02:49:19;;;;;;;1.95;1.05;;;;;;;3.98;85.97;100370.23;1699975;83;21186;-76
2020/12/25 02:51:48;;;;;;;4.35;1.87;;;;;;;3.95;85.92;100370.21;1690282;83;21247;-76
2020/12/25 02:54:14;;;;;;;2.55;1.40;;;;;;;3.93;85.93;100374.04;1716613;83;21202;-76
2020/12/25 02:56:40;;;;;;;2.70;1.52;;;;;;;3.90;85.96;100374.02;1705098;83;21769;-76
2020/12/25 02:59:07;;;;;;;4.37;1.77;;;;;;;3.90;85.77;100370.60;1705091;83;21226;-76
2020/12/25 03:01:33;;;;;;;2.83;0.98;;;;;;;3.88;85.96;100382.10;1709421;83;21611;-76
2020/12/25 03:03:59;;;;;;;2.62;1.15;;;;;;;3.86;85.95;100376.11;1699630;83;21645;-76
2020/12/25 03:06:26;;;;;;;2.55;1.10;;;;;;;3.82;85.88;100380.77;1724484;82;21170;-76
2020/12/25 03:08:52;;;;;;;4.25;1.50;;;;;;;3.78;85.90;100379.03;1719530;82;21182;-76
2020/12/25 03:11:18;;;;;;;2.47;1.22;;;;;;;3.77;85.91;100381.16;1702995;83;21238;-76
2020/12/25 03:13:44;;;;;;;2.37;1.20;;;;;;;3.70;85.83;100378.55;1689997;83;21154;-76
2020/12/25 03:16:11;;;;;;;6.33;1.67;;;;;;;3.64;85.95;100375.09;1695828;83;21183;-76
2020/12/25 03:18:37;;;;;;;1.90;1.17;;;;;;;3.65;85.96;100378.50;1711198;83;21198;-76
2020/12/25 03:21:04;;;;;;;2.40;0.93;;;;;;;3.64;85.98;100385.31;1695559;83;21226;-76
2020/12/25 03:23:30;;;;;;;;;;;;;;;3.63;85.98;100387.47;1709733;82;21237;-76
2020/12/25 03:25:56;;;;;;;4.85;1.30;;;;;;;3.62;85.93;100393.84;1705435;83;20458;-76
2020/12/25 03:28:22;;;;;;;1.87;1.10;;;;;;;3.59;85.95;100393.41;1710953;82;21649;-76
2020/12/25 03:30:49;;;;;;;4.90;1.45;;;;;;;3.55;85.92;100394.64;1702175;83;21671;-76
2020/12/25 03:33:15;;;;;;;4.53;1.72;;;;;;;3.52;85.91;100395.89;1713694;82;21415;-76
2020/12/25 03:35:41;;;;;;;3.55;1.40;;;;;;;3.50;85.98;100398.43;1709513;83;21181;-76
2020/12/25 03:38:07;;;;;;;2.58;1.22;;;;;;;3.51;85.99;100394.17;1710941;83;21189;-76
2020/12/25 03:40:34;;;;;;;2.37;1.30;;;;;;;3.48;85.94;100395.00;1719766;82;21202;-76
2020/12/25 03:43:01;;;;;;;4.70;1.67;;;;;;;3.45;85.92;100394.97;1714754;83;21240;-76
2020/12/25 03:45:28;;;;;;;3.55;1.80;;;;;;;3.41;85.96;100394.52;1710651;82;21206;-76
2020/12/25 03:47:54;;;;;;;4.33;1.62;;;;;;;3.41;85.92;100401.32;1711473;83;21198;-76
2020/12/25 03:50:20;;;;;;;6.17;1.72;;;;;;;3.36;85.96;100407.66;1722015;82;21243;-76
2020/12/25 03:52:48;;;;;;;3.17;1.70;;;;;;;3.36;85.95;100408.94;1670485;83;38277;-76
2020/12/25 03:55:14;;;;;;;4.42;1.90;;;;;;;3.35;86.01;100412.76;1703133;82;21173;-76
2020/12/25 03:57:40;;;;;;;6.97;2.02;;;;;;;3.35;86.02;100414.89;1716652;82;21688;-76
2020/12/25 04:00:07;;;;;;;6.37;1.77;;;;;;;3.34;86.00;100414.45;1714915;83;21202;-76
2020/12/25 04:02:33;;;;;;;4.22;1.85;;;;;;;3.32;85.99;100423.38;1703587;83;21229;-76
2020/12/25 04:04:59;;;;;;;7.12;2.33;;;;;;;3.32;86.02;100423.38;1702838;83;21177;-76
2020/12/25 04:07:25;;;;;;;7.85;2.77;;;;;;;3.30;85.99;100423.80;1707825;82;21179;-76
2020/12/25 04:09:52;;;;;;;5.12;1.95;;;;;;;3.27;85.99;100422.90;1718118;82;21360;-76
2020/12/25 04:12:18;;;;;;;5.00;2.20;;;;;;;3.26;85.98;100429.71;1709064;82;21174;-76
2020/12/25 04:14:44;;;;;;;4.80;1.90;;;;;;;3.24;85.98;100431.81;1704937;82;21234;-76
2020/12/25 04:17:11;;;;;;;5.20;2.42;;;;;;;3.21;85.98;100430.08;1711794;81;21505;-76
2020/12/25 04:19:37;;;;;;;7.15;2.60;;;;;;;3.19;86.00;100439.84;1702293;83;21162;-76
2020/12/25 04:22:03;;;;;;;7.17;2.27;;;;;;;3.18;86.04;100434.30;1717659;83;21301;-76
2020/12/25 04:24:29;;;;;;;4.25;2.15;;;;;;;3.17;85.97;100444.08;1704292;83;21230;-76
2020/12/25 04:26:56;;;;;;;4.75;2.45;;;;;;;3.13;85.94;100442.33;1706606;82;21166;-76
2020/12/25 04:29:22;;;;;;;5.83;2.08;;;;;;;3.09;85.96;100437.64;1702523;84;21193;-76
2020/12/25 04:31:48;;;;;;;6.60;2.17;;;;;;;3.09;86.00;100440.61;1701762;83;21157;-76
2020/12/25 04:34:14;;;;;;;4.78;2.27;;;;;;;3.06;85.97;100445.69;1707364;83;21622;-76
2020/12/25 04:36:41;;;;;;;5.10;2.25;;;;;;;3.04;86.03;100450.77;1713283;83;21206;-76
2020/12/25 04:39:08;;;;;;;7.28;1.67;;;;;;;3.02;86.00;100451.17;1716147;82;21619;-76
2020/12/25 04:41:34;;;;;;;;;;;;;;;3.02;86.01;100449.90;1712647;83;21185;-76
2020/12/25 04:44:02;;;;;;;3.90;1.70;;;;;;;3.00;86.03;100452.86;1699682;83;20325;-76
2020/12/25 04:46:28;;;;;;;6.85;1.95;;;;;;;2.98;85.97;100456.67;1699606;83;21243;-76
2020/12/25 04:48:55;;;;;;;5.12;2.20;;;;;;;2.95;86.00;100455.77;1717742;82;21187;-75
2020/12/25 04:51:21;;;;;;;;;;;;;;;2.95;86.04;100458.33;1720824;83;21194;-75
2020/12/25 04:53:53;;;;;;;5.28;2.00;;;;;;;2.90;85.93;100458.27;1720560;82;20677;-75
2020/12/25 04:56:22;;;;;;;4.65;2.02;;;;;;;2.88;85.99;100466.75;1721063;83;21606;-75
2020/12/25 04:58:50;;;;;;;4.03;2.02;;;;;;;2.84;85.97;100463.30;1721232;83;21229;-75
2020/12/25 05:01:16;;;;;;;5.10;2.05;;;;;;;2.83;86.01;100475.62;1720759;82;21162;-75
2020/12/25 05:03:44;;;;;;;4.15;2.02;;;;;;;2.80;85.96;100477.28;1709987;83;21179;-75
2020/12/25 05:06:13;;;;;;;8.13;2.08;;;;;;;2.76;86.04;100481.48;1707690;83;21201;-75
2020/12/25 05:08:49;;;;;;;7.47;2.42;;;;;;;2.76;86.05;100485.31;1720978;83;21230;-75
2020/12/25 05:11:19;;;;;;;4.28;2.05;;;;;;;2.74;85.98;100488.69;1710456;83;21923;-75
2020/12/25 05:13:52;;;;;;;4.40;2.00;;;;;;;2.71;86.00;100482.27;1718714;83;21215;-75
2020/12/25 05:16:21;;;;;;;4.78;2.25;;;;;;;2.68;86.01;100487.33;1727832;82;21991;-75
2020/12/25 05:18:51;;;;;;;4.85;2.22;;;;;;;2.64;85.98;100482.17;1723886;82;21214;-75
2020/12/25 05:21:22;;;;;;;7.17;2.58;;;;;;;2.60;86.01;100487.25;1702630;83;21205;-75
2020/12/25 05:23:50;;;;;;;6.33;2.17;;;;;;;2.59;86.02;100493.19;1710826;83;21248;-75
2020/12/25 05:26:18;;;;;;;4.40;2.27;;;;;;;2.57;86.00;100491.89;1720412;83;21669;-76
2020/12/25 05:28:48;;;;;;;7.42;2.65;;;;;;;2.54;86.01;100492.27;1720433;82;21210;-76
2020/12/25 05:31:17;;;;;;;4.30;2.35;;;;;;;2.52;85.98;100491.38;1707490;82;21237;-76
2020/12/25 05:33:43;;;;;;;5.95;2.67;;;;;;;2.47;85.94;100493.87;1715115;83;21596;-76
2020/12/25 05:36:12;;;;;;;3.08;2.00;;;;;;;2.46;86.02;100489.59;1708127;83;21209;-76
2020/12/25 05:38:42;;;;;;;3.65;1.80;;;;;;;2.46;86.04;100500.22;1720529;83;21687;-76
2020/12/25 05:41:08;;;;;;;5.10;2.62;;;;;;;2.45;86.04;100502.33;1697006;82;21213;-76
2020/12/25 05:43:35;;;;;;;3.62;1.92;;;;;;;2.44;86.04;100505.72;1708138;83;142921;-76
2020/12/25 05:46:01;;;;;;;6.45;2.02;;;;;;;2.42;86.00;100506.11;1720894;82;21173;-75
2020/12/25 05:48:27;;;;;;;4.60;2.25;;;;;;;2.40;86.02;100506.09;1720706;83;21190;-75
2020/12/25 05:50:54;;;;;;;5.90;1.25;;;;;;;2.39;86.01;100509.48;1699120;83;21891;-75
2020/12/25 05:53:20;;;;;;;2.12;1.17;;;;;;;2.36;85.96;100509.84;1712519;82;21694;-75
2020/12/25 05:55:47;;;;;;;3.52;1.50;;;;;;;2.32;85.94;100514.05;1696007;83;21189;-76
2020/12/25 05:58:15;;;;;;;2.90;1.87;;;;;;;2.28;85.98;100515.69;1696170;83;27389;-76
2020/12/25 06:00:45;;;;;;;4.30;1.92;;;;;;;2.26;86.02;100517.77;1685910;83;21251;-76
2020/12/25 06:03:18;;;;;;;5.03;1.85;;;;;;;2.25;86.03;100519.88;1719407;83;21258;-76
2020/12/25 06:05:46;;;;;;;4.20;2.08;;;;;;;2.21;85.99;100520.25;1720626;82;21210;-76
2020/12/25 06:08:19;;;;;;;7.12;2.47;;;;;;;2.17;85.98;100521.03;1721955;82;21118;-76
2020/12/25 06:10:47;;;;;;;5.08;2.20;;;;;;;2.16;86.02;100523.55;1690939;83;21269;-76
2020/12/25 06:13:16;;;;;;;3.50;2.08;;;;;;;2.14;86.05;100521.39;1709343;83;21244;-76
2020/12/25 06:15:49;;;;;;;3.02;1.67;;;;;;;2.14;86.05;100533.73;1715451;81;21169;-76
2020/12/25 06:18:58;;;;;;;7.03;1.70;;;;;;;2.11;85.99;100534.95;1709254;83;21679;-76
2020/12/25 06:21:30;;;;;;;2.45;1.60;;;;;;;2.09;86.03;100539.17;1694861;83;21163;-74
2020/12/25 06:23:58;;;;;;;3.72;1.70;;;;;;;2.04;85.96;100544.64;1722011;83;21552;-74
2020/12/25 06:26:25;;;;;;;2.37;1.35;;;;;;;2.01;85.97;100540.77;1695529;83;21897;-74
2020/12/25 06:28:53;;;;;;;4.15;1.50;;;;;;;2.01;86.01;100552.66;1708047;82;21142;-74
2020/12/25 06:31:48;;;;;;;3.47;1.40;;;;;;;1.98;85.98;100554.73;1721514;82;21207;-74
2020/12/25 06:34:15;;;;;;;2.83;1.30;;;;;;;1.94;85.95;100560.20;1721058;83;21190;-75
2020/12/25 06:36:47;;;;;;;3.22;1.25;;;;;;;1.90;85.93;100565.21;1698682;83;21209;-75
2020/12/25 06:39:17;;;;;;;2.00;1.05;;;;;;;1.90;86.02;100576.69;1716346;83;21635;-75
2020/12/25 06:41:44;;;;;;;2.20;1.32;;;;;;;1.89;86.04;100572.00;1713862;82;21217;-75
2020/12/25 06:44:17;;;;;;;3.52;1.35;;;;;;;1.90;86.02;100576.27;1720589;83;21186;-76
2020/12/25 06:46:51;;;;;;;1.98;1.05;;;;;;;1.90;86.03;100576.27;1719955;83;21233;-76
2020/12/25 06:49:21;;;;;;;4.05;0.82;;;;;;;1.93;86.07;100583.11;1720692;82;21193;-75
2020/12/25 06:51:48;;;;;;;0.93;0.57;;;;;;;1.95;86.05;100592.52;1720491;83;21247;-75
2020/12/25 06:54:21;;;;;;;2.47;0.85;;;;;;;1.95;85.95;100595.47;1720465;82;21539;-75
2020/12/25 06:56:51;;;;;;;1.15;1.05;;;;;;;1.94;85.93;100595.89;1717822;83;21206;-75
2020/12/25 06:59:19;;;;;;;1.62;0.70;;;;;;;1.98;85.98;100598.08;1719672;82;21253;-75
2020/12/25 07:01:47;;;;;;;1.25;0.50;;;;;;;2.00;85.96;100602.80;1712919;82;21934;-75
2020/12/25 07:04:32;;;;;;;1.27;0.60;;;;;;;2.03;85.95;100614.33;1718133;82;21783;-75
2020/12/25 07:07:12;;;;;;;1.00;0.55;;;;;;;2.05;85.95;100611.39;1700390;83;21509;-75
2020/12/25 07:09:50;;;;;;;1.32;0.50;;;;;;;2.09;85.96;100611.86;1717004;82;21191;-75
2020/12/25 07:12:24;;;;;;;2.37;0.60;;;;;;;2.12;85.93;100618.29;1697197;82;21226;-75
2020/12/25 07:14:50;;;;;;;0.47;0.40;;;;;;;2.15;85.92;100615.80;1691901;83;21631;-75
2020/12/25 07:17:19;;;;;;;1.85;0.40;;;;;;;2.20;85.92;100623.11;1702422;83;21210;-75
2020/12/25 07:19:46;;;;;;;0.93;0.37;;;;;;;2.23;85.89;100624.45;1720120;83;21240;-75
2020/12/25 07:22:12;;;;;;;1.62;0.40;;;;;;;2.27;85.89;100628.77;1720893;83;21660;-75
2020/12/25 07:24:41;;;;;;;0.45;0.30;;;;;;;2.30;85.90;100632.66;1700911;83;21241;-75
2020/12/25 07:27:09;;;;;;;0.85;0.40;;;;;;;2.35;85.86;100634.42;1715008;83;21623;-75
2020/12/25 07:29:36;;;;;;;2.05;0.50;;;;;;;2.35;85.77;100641.66;1720789;83;21639;-75
2020/12/25 07:32:04;;;;;;;0.42;0.30;;;;;;;2.39;85.82;100646.41;1690799;83;21225;-75
2020/12/25 07:34:30;;;;;;;1.40;0.40;;;;;;;2.42;85.81;100648.59;1710965;83;21189;-75
2020/12/25 07:36:57;;;;;;;0.72;0.50;;;;;;;2.44;85.79;100649.90;1720512;83;21606;-75
2020/12/25 07:39:26;;;;;;;1.67;0.60;;;;;;;2.48;85.84;100658.91;1720469;83;21643;-75
2020/12/25 07:41:53;;;;;;;0.93;0.47;;;;;;;2.50;85.81;100658.94;1711687;83;21510;-76
2020/12/25 07:44:23;;;;;;;1.00;0.57;;;;;;;2.53;85.85;100664.95;1722386;82;21194;-75
2020/12/25 07:46:50;;;;;;;1.17;0.70;;;;;;;2.58;85.87;100673.97;1721868;81;21237;-75
2020/12/25 07:49:19;;;;;;;0.90;0.60;;;;;;;2.59;85.82;100677.83;1719849;83;21506;-75
2020/12/25 07:51:49;;;;;;;2.12;0.40;;;;;;;2.60;85.76;100674.41;1720724;82;21710;-75
2020/12/25 07:54:16;;;;;;;0.98;0.55;;;;;;;2.63;85.76;100673.59;1720482;82;21247;-75
2020/12/25 07:56:43;;;;;;;1.35;0.80;;;;;;;2.63;85.80;100678.29;1715171;81;21200;-75
2020/12/25 07:59:09;;;;;;;2.55;1.10;;;;;;;2.69;85.79;100683.05;1725242;82;21173;-75
2020/12/25 08:01:36;;;;;;;2.47;1.05;;;;;;;2.69;85.78;100684.33;1726252;81;21760;-75
2020/12/25 08:04:04;;;;;;;1.65;1.10;;;;;;;2.72;85.79;100681.83;1719965;83;21174;-75
2020/12/25 08:06:34;;;;;;;3.30;1.22;;;;;;;2.74;85.72;100681.02;1708852;83;21658;-75
2020/12/25 08:09:09;;;;;;;1.65;1.02;;;;;;;2.76;85.73;100688.71;1693365;83;21233;-75
2020/12/25 08:11:38;;;;;;;3.15;1.30;;;;;;;2.77;85.70;100687.45;1716589;82;21669;-75
2020/12/25 08:14:11;;;;;;;2.05;1.05;;;;;;;2.76;85.59;100688.71;1716081;82;21023;-75
2020/12/25 08:16:42;;;;;;;2.22;1.00;;;;;;;2.74;85.60;100692.52;1707755;82;21138;-75
2020/12/25 08:19:09;;;;;;;1.17;0.60;;;;;;;2.75;85.62;100692.09;1716236;82;21173;-75
2020/12/25 08:21:38;;;;;;;1.25;0.60;;;;;;;2.77;85.62;100696.39;1711353;83;21130;-75
2020/12/25 08:24:06;;;;;;;0.93;0.50;;;;;;;2.78;85.54;100697.25;1696047;83;21154;-75
2020/12/25 08:26:37;;;;;;;1.37;0.78;;;;;;;2.79;85.52;100697.70;1721100;82;21138;-76
2020/12/25 08:29:04;;;;;;;0.65;0.50;;;;;;;2.78;85.48;100707.05;1722035;83;21129;-75
2020/12/25 08:31:36;;;;;;;1.82;0.90;;;;;;;2.80;85.57;100704.11;1696901;83;22766;-75
2020/12/25 08:34:04;;;;;;;1.42;0.70;;;;;;;2.83;85.57;100707.13;1709536;83;21146;-75
2020/12/25 08:36:31;;;;;;;1.87;0.90;;;;;;;2.84;85.51;100716.51;1721901;83;21142;-75
2020/12/25 08:38:57;;;;;;;1.82;0.93;;;;;;;2.85;85.52;100714.40;1697436;83;21126;-75
2020/12/25 08:41:27;;;;;;;1.37;0.70;;;;;;;2.87;85.58;100721.25;1710352;83;21135;-75
2020/12/25 08:43:55;;;;;;;2.20;0.70;;;;;;;2.89;85.52;100723.41;1693072;84;21595;-76
2020/12/25 08:46:23;;;;;;;1.67;0.93;;;;;;;2.90;85.54;100720.03;1698756;83;21147;-76
2020/12/25 08:48:52;;;;;;;0.50;0.40;;;;;;;2.89;85.48;100725.97;1715362;83;21553;-76
2020/12/25 08:51:19;;;;;;;0.60;0.30;;;;;;;2.91;85.52;100731.97;1720135;83;21225;-76
2020/12/25 08:53:54;;;;;;;0.88;0.50;;;;;;;2.93;85.53;100735.41;1676799;84;21198;-76
2020/12/25 08:56:24;;;;;;;0.98;0.50;;;;;;;2.95;85.55;100744.37;1698968;84;21691;-76
2020/12/25 08:59:05;;;;;;;1.02;0.30;;;;;;;2.97;85.46;100745.25;1699117;84;21182;-76
2020/12/25 09:01:36;;;;;;;1.02;0.55;;;;;;;2.97;85.44;100749.09;1677796;83;21223;-76
2020/12/25 09:04:03;;;;;;;1.20;0.78;;;;;;;2.98;85.47;100754.22;1699071;84;21633;-76
2020/12/25 09:06:30;;;;;;;0.95;0.70;;;;;;;2.97;85.44;100755.05;1698943;83;21192;-76
2020/12/25 09:08:56;;;;;;;;;;;;;;;2.98;85.49;100764.44;1697547;84;21210;-76
2020/12/25 09:11:25;;;;;;;1.45;0.90;;;;;;;2.98;85.48;100766.99;1684422;83;20233;-76
2020/12/25 09:13:52;;;;;;;1.80;0.95;;;;;;;3.00;85.52;100768.30;1697370;84;21202;-76
2020/12/25 09:16:19;;;;;;;2.10;1.57;;;;;;;3.02;85.52;100771.73;1693822;82;21182;-76
2020/12/25 09:18:45;;;;;;;2.17;1.50;;;;;;;3.04;85.52;100773.91;1695726;83;21238;-76
2020/12/25 09:21:13;;;;;;;1.65;1.27;;;;;;;3.03;85.45;100777.70;1681195;84;21919;-76
2020/12/25 09:23:40;;;;;;;3.22;1.60;;;;;;;3.02;85.45;100775.56;1687101;84;21214;-76
2020/12/25 09:26:07;;;;;;;;;;;;;;;3.02;85.50;100774.70;1693971;83;21631;-76
2020/12/25 09:28:34;;;;;;;1.22;0.90;;;;;;;3.04;85.45;100773.04;1696889;83;20264;-76
2020/12/25 09:31:00;;;;;;;1.22;0.80;;;;;;;3.02;85.33;100783.65;1695340;83;21210;-76
2020/12/25 09:33:27;;;;;;;1.72;0.90;;;;;;;2.95;85.25;100787.38;1674672;82;21936;-76
2020/12/25 09:35:53;;;;;;;5.97;1.27;;;;;;;2.93;85.32;100789.45;1685699;85;22024;-76
2020/12/25 09:38:19;;;;;;;1.20;0.90;;;;;;;2.89;85.30;100787.67;1691984;83;21249;-76
2020/12/25 09:40:52;;;;;;;1.10;1.00;;;;;;;2.85;85.40;100784.62;1680365;83;21242;-76
2020/12/25 09:43:19;;;;;;;1.80;1.00;;;;;;;2.82;85.46;100785.84;1683836;83;21203;-76
2020/12/25 09:45:46;;;;;;;2.72;1.10;;;;;;;2.81;85.46;100786.67;1658496;84;22148;-76
2020/12/25 09:48:13;;;;;;;1.82;1.00;;;;;;;2.77;85.45;100787.04;1648006;85;21672;-76
2020/12/25 09:50:39;;;;;;;2.30;1.35;;;;;;;2.78;85.55;100790.03;1690173;83;21135;-76
2020/12/25 09:53:06;;;;;;;2.40;1.85;;;;;;;2.81;85.63;100795.20;1691351;84;21217;-76
2020/12/25 09:55:40;;;;;;;3.12;1.50;;;;;;;2.84;85.69;100790.15;1697366;83;21198;-76
2020/12/25 09:58:07;;;;;;;2.80;1.60;;;;;;;2.90;85.78;100786.42;1719028;81;21237;-76
2020/12/25 10:00:33;;;;;;;2.77;2.10;;;;;;;2.94;85.71;100789.90;1691029;83;21214;-76
2020/12/25 10:02:59;;;;;;;4.33;2.40;;;;;;;2.97;85.59;100786.13;1702647;84;21847;-76
2020/12/25 10:05:26;;;;;;;4.87;2.17;;;;;;;2.98;85.60;100789.13;1698024;83;21189;-76
2020/12/25 10:07:53;;;;;;;4.90;1.32;;;;;;;3.03;85.75;100787.92;1686206;84;21217;-76
2020/12/25 10:10:24;;;;;;;2.12;1.20;;;;;;;3.02;85.73;100777.27;1691431;82;21237;-76
2020/12/25 10:12:52;;;;;;;2.15;1.42;;;;;;;3.08;85.59;100788.45;1702552;83;21270;-76
2020/12/25 10:15:19;;;;;;;2.47;1.37;;;;;;;3.02;85.45;100785.78;1689044;83;21177;-76
2020/12/25 10:17:45;;;;;;;1.82;1.15;;;;;;;3.02;85.62;100788.76;1679225;84;21209;-76
2020/12/25 10:20:12;;;;;;;2.17;1.35;;;;;;;3.05;85.68;100792.64;1702773;82;21226;-76
2020/12/25 10:22:38;;;;;;;2.05;1.30;;;;;;;3.09;85.74;100794.00;1702691;83;21459;-76
2020/12/25 10:25:05;;;;;;;2.30;1.35;;;;;;;3.13;85.80;100795.74;1697866;82;21254;-76
2020/12/25 10:27:31;;;;;;;1.90;1.35;;;;;;;3.18;85.79;100795.41;1684461;82;21237;-76
2020/12/25 10:29:58;;;;;;;1.75;1.05;;;;;;;3.25;85.84;100802.75;1686403;83;21186;-76
2020/12/25 10:32:24;;;;;;;1.70;1.17;;;;;;;3.30;85.79;100801.99;1693579;84;21229;-76
2020/12/25 10:34:51;;;;;;;4.00;1.75;;;;;;;3.32;85.73;100795.63;1712856;82;21619;-76
2020/12/25 10:37:17;;;;;;;3.65;1.37;;;;;;;3.36;85.76;100802.52;1715648;82;21182;-76
2020/12/25 10:39:43;;;;;;;3.75;1.67;;;;;;;3.43;85.81;100798.36;1702665;84;21230;-76
2020/12/25 10:42:11;;;;;;;4.42;1.67;;;;;;;3.50;85.81;100802.73;1702570;83;21241;-76
2020/12/25 10:44:38;;;;;;;2.25;1.32;;;;;;;3.55;85.80;100797.28;1694628;82;21198;-76
2020/12/25 10:47:04;;;;;;;1.67;1.30;;;;;;;3.60;85.77;100796.93;1702662;84;21221;-76
2020/12/25 10:49:30;;;;;;;;;;;;;;;3.60;85.66;100791.81;1705833;82;21976;-76
2020/12/25 10:51:57;;;;;;;1.70;1.17;;;;;;;3.60;85.64;100792.67;1704127;84;20209;-76
2020/12/25 10:54:23;;;;;;;1.87;1.22;;;;;;;3.61;85.68;100795.67;1683246;83;21683;-76
2020/12/25 10:56:50;;;;;;;2.40;1.32;;;;;;;3.61;85.68;100787.14;1662796;84;21159;-76
2020/12/25 10:59:16;;;;;;;;;;;;;;;3.63;85.73;100786.33;1683216;84;21716;-76
2020/12/25 11:01:46;;;;;;;2.60;1.40;;;;;;;3.68;85.65;100785.50;1676034;84;20296;-76
2020/12/25 11:04:10;;;;;;;2.40;1.67;;;;;;;3.72;85.79;100780.46;1664277;83;21242;-76
2020/12/25 11:06:37;;;;;;;4.67;1.90;;;;;;;3.79;85.84;100779.71;1665825;84;21208;-76
2020/12/25 11:09:05;;;;;;;;;;;;;;;3.85;85.81;100779.80;1678345;84;21235;-76
2020/12/25 11:11:34;;;;;;;2.55;1.25;;;;;;;3.86;85.69;100775.13;1697068;83;21063;-76
2020/12/25 11:14:01;;;;;;;2.60;1.40;;;;;;;3.89;85.74;100775.16;1682606;85;21748;-76
2020/12/25 11:16:28;;;;;;;;;;;;;;;3.93;85.73;100764.13;1663294;84;21247;-76
2020/12/25 11:18:57;;;;;;;1.90;1.20;;;;;;;3.91;85.55;100767.09;1682303;84;20652;-76
2020/12/25 11:21:29;;;;;;;3.72;1.50;;;;;;;3.92;85.65;100770.09;1677646;84;21252;-76
2020/12/25 11:23:59;;;;;;;4.95;1.95;;;;;;;3.93;85.56;100770.95;1669956;84;21196;-76
2020/12/25 11:26:37;;;;;;;5.53;2.40;;;;;;;3.93;85.62;100774.38;1673969;84;21571;-76
2020/12/25 11:29:07;;;;;;;3.95;2.72;;;;;;;3.96;85.64;100774.83;1659040;84;21239;-76
2020/12/25 11:31:36;;;;;;;2.70;1.40;;;;;;;4.00;85.72;100780.43;1650915;84;21238;-76
2020/12/25 11:34:03;;;;;;;2.35;1.65;;;;;;;4.05;85.73;100777.52;1670189;84;21219;-76
2020/12/25 11:36:36;;;;;;;;;;;;;;;4.04;85.58;100773.23;1692703;84;21633;-76
2020/12/25 11:39:05;;;;;;;4.10;1.80;;;;;;;4.05;85.51;100776.23;1675769;84;20286;-76
2020/12/25 11:41:32;;;;;;;5.00;2.25;;;;;;;4.03;85.54;100777.05;1686304;84;21228;-76